Monday, December 5, 2016, 11:35 AM EST

KTHV, York Airport

Location: Spring Grove, PA, United States Lat: 39.917
Local Time: 11:35 AM EST (16:35 GMT) Lon: -76.883
Time Zone: US/Eastern Elev: 478 ft

Show me the last for .
Show Decoded

2016-12-05 10:53 METAR KTHV 051553Z AUTO 31004KT 10SM FEW012 BKN043 07/05 A3000 RMK AO2 SLP164
                 T00720050 =
2016-12-05 10:22 METAR KTHV 051522Z AUTO 26004KT 10SM SCT011 BKN048 07/05 A3001 RMK AO2 T00670050
                 =
2016-12-05 09:53 METAR KTHV 051453Z AUTO 24005KT 10SM BKN011 OVC050 06/05 A3001 RMK AO2 SLP167
                 T00610050 51013 =
2016-12-05 09:24 METAR KTHV 051424Z AUTO 26006KT 10SM BKN011 OVC055 06/04 A3001 RMK AO2 T00560044
                 =
2016-12-05 09:00 METAR KTHV 051400Z AUTO 25006KT 10SM SCT008 BKN055 06/04 A3000 RMK AO2 T00560044
                 =
2016-12-05 08:53 METAR KTHV 051353Z AUTO 22004KT 10SM BKN008 OVC055 05/04 A3000 RMK AO2 SLP164
                 T00500044 =
2016-12-05 07:53 METAR KTHV 051253Z AUTO 23006KT 10SM OVC008 04/04 A2999 RMK AO2 SLP162 T00390039
                 =
2016-12-05 06:53 METAR KTHV 051153Z AUTO 23005KT 10SM OVC009 04/03 A2997 RMK AO2 RAE06 SLP154
                 P0000 60015 70018 T00390033 10039 20011 53000 =
2016-12-05 05:53 METAR KTHV 051053Z AUTO 23005KT 10SM -RA OVC009 04/03 A2996 RMK AO2 RAB48 SLP152
                 P0000 T00390033 TSNO =
2016-12-05 05:19 METAR KTHV 051019Z AUTO 22005KT 10SM OVC009 04/03 A2996 RMK AO2 T00390033 =
2016-12-05 04:53 METAR KTHV 050953Z AUTO VRB04KT 10SM OVC010 03/03 A2997 RMK AO2 SLP154 T00330028
                 =
2016-12-05 03:53 METAR KTHV 050853Z AUTO 19004KT 10SM OVC013 03/03 A2997 RMK AO2 RAE18 SLP154
                 P0002 60015 T00280028 56018 =
2016-12-05 03:33 METAR KTHV 050833Z AUTO VRB03KT 8SM OVC015 03/02 A2997 RMK AO2 RAE18 P0002
                 T00280022 =
2016-12-05 02:53 METAR KTHV 050753Z AUTO 00000KT 6SM -RA BR OVC011 02/02 A2999 RMK AO2 SLP160
                 P0005 T00220022 =
2016-12-05 02:07 METAR KTHV 050707Z AUTO 15005KT 5SM -RA BR FEW009 BKN014 OVC041 02/02 A2999 RMK
                 AO2 P0001 T00170017 =
2016-12-05 01:53 METAR KTHV 050653Z AUTO 14005KT 4SM -RA BR SCT015 BKN036 OVC044 01/01 A3000 RMK
                 AO2 SLP163 P0008 T00110011 =
2016-12-05 01:19 METAR KTHV 050619Z AUTO VRB03KT 4SM RA BR BKN015 BKN022 OVC030 02/02 A3002 RMK
                 AO2 P0004 T00170017 =
2016-12-05 00:53 METAR KTHV 050553Z AUTO 6SM -RA BR FEW019 BKN034 OVC040 02/01 A3002 RMK AO2
                 RAB0456SNB27E36 SLP172 P0003 60003 T00220011 10050 20022 56023 =
2016-12-04 23:53 METAR KTHV 050453Z AUTO 15009KT 10SM SCT043 OVC055 04/01 A3003 RMK AO2 RAE33
                 SLP173 P0000 T00390011 400610028 =
2016-12-04 22:53 METAR KTHV 050353Z AUTO 16006KT 10SM -RA OVC050 04/01 A3007 RMK AO2 RAB41 SLP188
                 P0000 T00440006 =
2016-12-04 21:53 METAR KTHV 050253Z AUTO 15005KT 10SM BKN065 OVC080 04/00 A3009 RMK AO2 SLP195
                 T00440000 58019 =
2016-12-04 20:53 METAR KTHV 050153Z AUTO 00000KT 10SM SCT120 04/00 A3012 RMK AO2 SLP204 T00390000
                 =
2016-12-04 19:53 METAR KTHV 050053Z AUTO 15004KT 10SM CLR 04/M01 A3013 RMK AO2 SLP209 T00441006 =
2016-12-04 18:53 METAR KTHV 042353Z AUTO 13003KT 10SM CLR 03/00 A3015 RMK AO2 SLP214 T00280000
                 10061 20028 56014 =
2016-12-04 17:53 METAR KTHV 042253Z AUTO 15003KT 10SM CLR 04/M01 A3015 RMK AO2 SLP217 T00391006 =
2016-12-04 16:53 METAR KTHV 042153Z AUTO 14004KT 10SM CLR 04/M01 A3016 RMK AO2 SLP217 T00441006 =
2016-12-04 15:53 METAR KTHV 042053Z AUTO 00000KT 10SM CLR 06/M01 A3019 RMK AO2 SLP228 T00561011
                 55010 =
2016-12-04 14:53 METAR KTHV 041953Z AUTO 31003KT 10SM SCT036 06/M01 A3018 RMK AO2 SLP226
                 T00611011 =
2016-12-04 13:53 METAR KTHV 041853Z AUTO 00000KT 10SM OVC035 06/M02 A3021 RMK AO2 SLP235
                 T00611017 =
2016-12-04 12:53 METAR KTHV 041753Z AUTO 32003KT 10SM OVC032 06/M01 A3022 RMK AO2 SLP238
                 T00561011 10061 20033 58017 =
2016-12-04 11:53 METAR KTHV 041653Z AUTO VRB03KT 10SM OVC034 06/00 A3024 RMK AO2 SLP245 T00560000
                 TSNO =

Support USWX by starting your Amazon purchase here.